sensor_id;sensor_type;location;lat;lon;timestamp;P1;P2;P0
38451;PMS5003;24231;52.514;13.438;2023-04-15T00:02:13;29;22;
38451;PMS5003;24231;52.514;13.438;2023-04-15T00:04:41;31;25;
38451;PMS5003;24231;52.514;13.438;2023-04-15T00:07:08;31;30;
38451;PMS5003;24231;52.514;13.438;2023-04-15T00:09:35;34;28;
38451;PMS5003;24231;52.514;13.438;2023-04-15T00:12:03;35;30;
38451;PMS5003;24231;52.514;13.438;2023-04-15T00:14:30;37;30;
38451;PMS5003;24231;52.514;13.438;2023-04-15T00:16:58;37;33;
38451;PMS5003;24231;52.514;13.438;2023-04-15T00:19:26;30;28;
38451;PMS5003;24231;52.514;13.438;2023-04-15T00:21:53;41;30;
38451;PMS5003;24231;52.514;13.438;2023-04-15T00:24:20;35;28;
38451;PMS5003;24231;52.514;13.438;2023-04-15T00:26:47;37;33;
38451;PMS5003;24231;52.514;13.438;2023-04-15T00:29:14;40;31;
38451;PMS5003;24231;52.514;13.438;2023-04-15T00:31:41;35;29;
38451;PMS5003;24231;52.514;13.438;2023-04-15T00:34:09;35;32;
38451;PMS5003;24231;52.514;13.438;2023-04-15T00:36:36;28;28;
38451;PMS5003;24231;52.514;13.438;2023-04-15T00:39:03;30;28;
38451;PMS5003;24231;52.514;13.438;2023-04-15T00:41:30;42;33;
38451;PMS5003;24231;52.514;13.438;2023-04-15T00:43:57;34;29;
38451;PMS5003;24231;52.514;13.438;2023-04-15T00:46:24;41;34;
38451;PMS5003;24231;52.514;13.438;2023-04-15T00:48:54;35;30;
38451;PMS5003;24231;52.514;13.438;2023-04-15T00:51:21;32;31;
38451;PMS5003;24231;52.514;13.438;2023-04-15T00:53:48;37;32;
38451;PMS5003;24231;52.514;13.438;2023-04-15T00:56:16;45;39;
38451;PMS5003;24231;52.514;13.438;2023-04-15T00:58:45;36;31;
38451;PMS5003;24231;52.514;13.438;2023-04-15T01:01:12;37;31;
38451;PMS5003;24231;52.514;13.438;2023-04-15T01:03:39;35;34;
38451;PMS5003;24231;52.514;13.438;2023-04-15T01:06:06;43;38;
38451;PMS5003;24231;52.514;13.438;2023-04-15T01:08:34;35;31;
38451;PMS5003;24231;52.514;13.438;2023-04-15T01:11:01;43;37;
38451;PMS5003;24231;52.514;13.438;2023-04-15T01:13:28;44;35;
38451;PMS5003;24231;52.514;13.438;2023-04-15T01:15:57;32;27;
38451;PMS5003;24231;52.514;13.438;2023-04-15T01:18:24;33;31;
38451;PMS5003;24231;52.514;13.438;2023-04-15T01:20:52;54;45;
38451;PMS5003;24231;52.514;13.438;2023-04-15T01:23:19;34;30;
38451;PMS5003;24231;52.514;13.438;2023-04-15T01:25:47;35;29;
38451;PMS5003;24231;52.514;13.438;2023-04-15T01:28:15;38;37;
38451;PMS5003;24231;52.514;13.438;2023-04-15T01:30:42;38;32;
38451;PMS5003;24231;52.514;13.438;2023-04-15T01:33:09;42;39;
38451;PMS5003;24231;52.514;13.438;2023-04-15T01:35:37;51;34;
38451;PMS5003;24231;52.514;13.438;2023-04-15T01:38:05;40;37;
38451;PMS5003;24231;52.514;13.438;2023-04-15T01:40:34;41;35;
38451;PMS5003;24231;52.514;13.438;2023-04-15T01:43:01;41;33;
38451;PMS5003;24231;52.514;13.438;2023-04-15T01:45:28;41;33;
38451;PMS5003;24231;52.514;13.438;2023-04-15T01:47:56;44;35;
38451;PMS5003;24231;52.514;13.438;2023-04-15T01:50:22;38;35;
38451;PMS5003;24231;52.514;13.438;2023-04-15T01:52:50;34;32;
38451;PMS5003;24231;52.514;13.438;2023-04-15T01:55:17;35;33;
38451;PMS5003;24231;52.514;13.438;2023-04-15T01:57:44;43;39;
38451;PMS5003;24231;52.514;13.438;2023-04-15T02:00:11;38;36;
38451;PMS5003;24231;52.514;13.438;2023-04-15T02:02:39;41;36;
38451;PMS5003;24231;52.514;13.438;2023-04-15T02:05:07;45;39;
38451;PMS5003;24231;52.514;13.438;2023-04-15T02:07:34;46;42;
38451;PMS5003;24231;52.514;13.438;2023-04-15T02:10:02;40;33;
38451;PMS5003;24231;52.514;13.438;2023-04-15T02:12:29;40;30;
38451;PMS5003;24231;52.514;13.438;2023-04-15T02:14:56;38;34;
38451;PMS5003;24231;52.514;13.438;2023-04-15T02:17:24;43;36;
38451;PMS5003;24231;52.514;13.438;2023-04-15T02:19:51;36;34;
38451;PMS5003;24231;52.514;13.438;2023-04-15T02:22:18;49;43;
38451;PMS5003;24231;52.514;13.438;2023-04-15T02:24:45;39;34;
38451;PMS5003;24231;52.514;13.438;2023-04-15T02:27:14;42;40;
38451;PMS5003;24231;52.514;13.438;2023-04-15T02:29:42;39;30;
38451;PMS5003;24231;52.514;13.438;2023-04-15T02:32:09;42;35;
38451;PMS5003;24231;52.514;13.438;2023-04-15T02:34:36;50;35;
38451;PMS5003;24231;52.514;13.438;2023-04-15T02:37:04;42;37;
38451;PMS5003;24231;52.514;13.438;2023-04-15T02:39:31;42;34;
38451;PMS5003;24231;52.514;13.438;2023-04-15T02:41:58;39;35;
38451;PMS5003;24231;52.514;13.438;2023-04-15T02:44:26;43;36;
38451;PMS5003;24231;52.514;13.438;2023-04-15T02:46:53;40;36;
38451;PMS5003;24231;52.514;13.438;2023-04-15T02:49:20;31;30;
38451;PMS5003;24231;52.514;13.438;2023-04-15T02:51:47;42;34;
38451;PMS5003;24231;52.514;13.438;2023-04-15T02:54:14;45;39;
38451;PMS5003;24231;52.514;13.438;2023-04-15T02:56:41;50;36;
38451;PMS5003;24231;52.514;13.438;2023-04-15T02:59:08;40;34;
38451;PMS5003;24231;52.514;13.438;2023-04-15T03:01:35;36;30;
38451;PMS5003;24231;52.514;13.438;2023-04-15T03:04:03;41;35;
38451;PMS5003;24231;52.514;13.438;2023-04-15T03:06:30;49;38;
38451;PMS5003;24231;52.514;13.438;2023-04-15T03:08:57;38;31;
38451;PMS5003;24231;52.514;13.438;2023-04-15T03:11:25;47;34;
38451;PMS5003;24231;52.514;13.438;2023-04-15T03:13:52;35;30;
38451;PMS5003;24231;52.514;13.438;2023-04-15T03:16:19;41;35;
38451;PMS5003;24231;52.514;13.438;2023-04-15T03:18:46;40;36;
38451;PMS5003;24231;52.514;13.438;2023-04-15T03:21:14;43;36;
38451;PMS5003;24231;52.514;13.438;2023-04-15T03:23:41;40;37;
38451;PMS5003;24231;52.514;13.438;2023-04-15T03:26:08;34;30;
38451;PMS5003;24231;52.514;13.438;2023-04-15T03:28:35;33;29;
38451;PMS5003;24231;52.514;13.438;2023-04-15T03:31:03;40;32;
38451;PMS5003;24231;52.514;13.438;2023-04-15T03:33:30;41;33;
38451;PMS5003;24231;52.514;13.438;2023-04-15T03:35:57;44;34;
38451;PMS5003;24231;52.514;13.438;2023-04-15T03:38:25;47;36;
38451;PMS5003;24231;52.514;13.438;2023-04-15T03:40:52;37;32;
38451;PMS5003;24231;52.514;13.438;2023-04-15T03:43:19;42;32;
38451;PMS5003;24231;52.514;13.438;2023-04-15T03:45:46;43;38;
38451;PMS5003;24231;52.514;13.438;2023-04-15T03:48:13;38;32;
38451;PMS5003;24231;52.514;13.438;2023-04-15T03:50:40;36;29;
38451;PMS5003;24231;52.514;13.438;2023-04-15T03:53:07;37;34;
38451;PMS5003;24231;52.514;13.438;2023-04-15T03:55:34;35;29;
38451;PMS5003;24231;52.514;13.438;2023-04-15T03:58:01;41;33;
38451;PMS5003;24231;52.514;13.438;2023-04-15T04:00:28;37;31;
38451;PMS5003;24231;52.514;13.438;2023-04-15T04:02:55;31;28;
38451;PMS5003;24231;52.514;13.438;2023-04-15T04:05:22;42;33;
38451;PMS5003;24231;52.514;13.438;2023-04-15T04:07:49;39;28;
38451;PMS5003;24231;52.514;13.438;2023-04-15T04:10:17;40;36;
38451;PMS5003;24231;52.514;13.438;2023-04-15T04:12:44;42;37;
38451;PMS5003;24231;52.514;13.438;2023-04-15T04:15:11;39;32;
38451;PMS5003;24231;52.514;13.438;2023-04-15T04:17:38;29;26;
38451;PMS5003;24231;52.514;13.438;2023-04-15T04:20:06;34;29;
38451;PMS5003;24231;52.514;13.438;2023-04-15T04:22:36;35;29;
38451;PMS5003;24231;52.514;13.438;2023-04-15T04:25:03;36;31;
38451;PMS5003;24231;52.514;13.438;2023-04-15T04:27:31;35;33;
38451;PMS5003;24231;52.514;13.438;2023-04-15T04:29:58;44;41;
38451;PMS5003;24231;52.514;13.438;2023-04-15T04:32:27;37;28;
38451;PMS5003;24231;52.514;13.438;2023-04-15T04:34:53;32;28;
38451;PMS5003;24231;52.514;13.438;2023-04-15T04:37:21;34;30;
38451;PMS5003;24231;52.514;13.438;2023-04-15T04:39:48;34;27;
38451;PMS5003;24231;52.514;13.438;2023-04-15T04:42:15;41;37;
38451;PMS5003;24231;52.514;13.438;2023-04-15T04:44:42;38;37;
38451;PMS5003;24231;52.514;13.438;2023-04-15T04:47:10;38;37;
38451;PMS5003;24231;52.514;13.438;2023-04-15T04:49:37;41;35;
38451;PMS5003;24231;52.514;13.438;2023-04-15T04:52:04;28;26;
38451;PMS5003;24231;52.514;13.438;2023-04-15T04:54:32;38;34;
38451;PMS5003;24231;52.514;13.438;2023-04-15T04:56:59;29;27;
38451;PMS5003;24231;52.514;13.438;2023-04-15T04:59:27;34;32;
38451;PMS5003;24231;52.514;13.438;2023-04-15T05:01:54;38;29;
38451;PMS5003;24231;52.514;13.438;2023-04-15T05:04:21;34;29;
38451;PMS5003;24231;52.514;13.438;2023-04-15T05:06:48;31;29;
38451;PMS5003;24231;52.514;13.438;2023-04-15T05:09:15;34;31;
38451;PMS5003;24231;52.514;13.438;2023-04-15T05:11:42;41;36;
38451;PMS5003;24231;52.514;13.438;2023-04-15T05:14:09;41;28;
38451;PMS5003;24231;52.514;13.438;2023-04-15T05:16:37;31;29;
38451;PMS5003;24231;52.514;13.438;2023-04-15T05:19:04;29;24;
38451;PMS5003;24231;52.514;13.438;2023-04-15T05:21:32;29;26;
38451;PMS5003;24231;52.514;13.438;2023-04-15T05:23:59;30;28;
38451;PMS5003;24231;52.514;13.438;2023-04-15T05:26:27;28;25;
38451;PMS5003;24231;52.514;13.438;2023-04-15T05:28:54;34;28;
38451;PMS5003;24231;52.514;13.438;2023-04-15T05:31:21;31;25;
38451;PMS5003;24231;52.514;13.438;2023-04-15T05:33:49;25;25;
38451;PMS5003;24231;52.514;13.438;2023-04-15T05:36:16;23;21;
38451;PMS5003;24231;52.514;13.438;2023-04-15T05:38:43;25;22;
38451;PMS5003;24231;52.514;13.438;2023-04-15T05:41:11;27;22;
38451;PMS5003;24231;52.514;13.438;2023-04-15T05:43:38;29;25;
38451;PMS5003;24231;52.514;13.438;2023-04-15T05:46:04;33;24;
38451;PMS5003;24231;52.514;13.438;2023-04-15T05:48:31;24;22;
38451;PMS5003;24231;52.514;13.438;2023-04-15T05:50:59;34;28;
38451;PMS5003;24231;52.514;13.438;2023-04-15T05:53:26;33;26;
38451;PMS5003;24231;52.514;13.438;2023-04-15T05:55:53;30;24;
38451;PMS5003;24231;52.514;13.438;2023-04-15T05:58:21;35;26;
38451;PMS5003;24231;52.514;13.438;2023-04-15T06:00:48;30;26;
38451;PMS5003;24231;52.514;13.438;2023-04-15T06:03:15;25;24;
38451;PMS5003;24231;52.514;13.438;2023-04-15T06:05:42;28;25;
38451;PMS5003;24231;52.514;13.438;2023-04-15T06:08:09;26;19;
38451;PMS5003;24231;52.514;13.438;2023-04-15T06:10:36;27;24;
38451;PMS5003;24231;52.514;13.438;2023-04-15T06:13:03;28;27;
38451;PMS5003;24231;52.514;13.438;2023-04-15T06:15:31;25;21;
38451;PMS5003;24231;52.514;13.438;2023-04-15T06:17:58;28;23;
38451;PMS5003;24231;52.514;13.438;2023-04-15T06:20:25;25;24;
38451;PMS5003;24231;52.514;13.438;2023-04-15T06:22:52;21;21;
38451;PMS5003;24231;52.514;13.438;2023-04-15T06:25:19;28;25;
38451;PMS5003;24231;52.514;13.438;2023-04-15T06:27:47;19;18;
38451;PMS5003;24231;52.514;13.438;2023-04-15T06:30:14;23;20;
38451;PMS5003;24231;52.514;13.438;2023-04-15T06:32:41;28;25;
38451;PMS5003;24231;52.514;13.438;2023-04-15T06:35:08;25;23;
38451;PMS5003;24231;52.514;13.438;2023-04-15T06:37:36;28;25;
38451;PMS5003;24231;52.514;13.438;2023-04-15T06:40:03;25;21;
38451;PMS5003;24231;52.514;13.438;2023-04-15T06:42:31;25;24;
38451;PMS5003;24231;52.514;13.438;2023-04-15T06:44:58;24;22;
38451;PMS5003;24231;52.514;13.438;2023-04-15T06:47:25;23;19;
38451;PMS5003;24231;52.514;13.438;2023-04-15T06:49:52;26;24;
38451;PMS5003;24231;52.514;13.438;2023-04-15T06:52:19;20;19;
38451;PMS5003;24231;52.514;13.438;2023-04-15T06:54:46;22;18;
38451;PMS5003;24231;52.514;13.438;2023-04-15T06:57:14;22;21;
38451;PMS5003;24231;52.514;13.438;2023-04-15T06:59:41;22;20;
38451;PMS5003;24231;52.514;13.438;2023-04-15T07:02:08;22;21;
38451;PMS5003;24231;52.514;13.438;2023-04-15T07:04:38;21;18;
38451;PMS5003;24231;52.514;13.438;2023-04-15T07:07:05;18;18;
38451;PMS5003;24231;52.514;13.438;2023-04-15T07:09:33;20;17;
38451;PMS5003;24231;52.514;13.438;2023-04-15T07:12:01;29;23;
38451;PMS5003;24231;52.514;13.438;2023-04-15T07:14:28;26;23;
38451;PMS5003;24231;52.514;13.438;2023-04-15T07:16:55;22;17;
38451;PMS5003;24231;52.514;13.438;2023-04-15T07:19:22;24;21;
38451;PMS5003;24231;52.514;13.438;2023-04-15T07:21:49;21;20;
38451;PMS5003;24231;52.514;13.438;2023-04-15T07:24:16;18;17;
38451;PMS5003;24231;52.514;13.438;2023-04-15T07:26:43;18;17;
38451;PMS5003;24231;52.514;13.438;2023-04-15T07:29:11;25;23;
38451;PMS5003;24231;52.514;13.438;2023-04-15T07:31:39;23;20;
38451;PMS5003;24231;52.514;13.438;2023-04-15T07:34:06;26;22;
38451;PMS5003;24231;52.514;13.438;2023-04-15T07:36:33;22;20;
38451;PMS5003;24231;52.514;13.438;2023-04-15T07:39:00;18;18;
38451;PMS5003;24231;52.514;13.438;2023-04-15T07:41:27;27;25;
38451;PMS5003;24231;52.514;13.438;2023-04-15T07:43:55;24;21;
38451;PMS5003;24231;52.514;13.438;2023-04-15T07:46:22;28;22;
38451;PMS5003;24231;52.514;13.438;2023-04-15T07:48:49;25;23;
38451;PMS5003;24231;52.514;13.438;2023-04-15T07:51:16;23;21;
38451;PMS5003;24231;52.514;13.438;2023-04-15T07:53:44;28;24;
38451;PMS5003;24231;52.514;13.438;2023-04-15T07:56:11;21;17;
38451;PMS5003;24231;52.514;13.438;2023-04-15T07:58:38;26;24;
38451;PMS5003;24231;52.514;13.438;2023-04-15T08:01:05;24;22;
38451;PMS5003;24231;52.514;13.438;2023-04-15T08:03:32;22;20;
38451;PMS5003;24231;52.514;13.438;2023-04-15T08:05:59;23;19;
38451;PMS5003;24231;52.514;13.438;2023-04-15T08:08:27;24;21;
38451;PMS5003;24231;52.514;13.438;2023-04-15T08:10:54;25;19;
38451;PMS5003;24231;52.514;13.438;2023-04-15T08:13:23;22;20;
38451;PMS5003;24231;52.514;13.438;2023-04-15T08:15:52;24;23;
38451;PMS5003;24231;52.514;13.438;2023-04-15T08:18:39;19;19;
38451;PMS5003;24231;52.514;13.438;2023-04-15T08:21:06;25;21;
38451;PMS5003;24231;52.514;13.438;2023-04-15T08:23:33;17;15;
38451;PMS5003;24231;52.514;13.438;2023-04-15T08:26:01;24;23;
38451;PMS5003;24231;52.514;13.438;2023-04-15T08:28:28;17;17;
38451;PMS5003;24231;52.514;13.438;2023-04-15T08:30:55;22;20;
38451;PMS5003;24231;52.514;13.438;2023-04-15T08:33:23;21;20;
38451;PMS5003;24231;52.514;13.438;2023-04-15T08:35:50;26;21;
38451;PMS5003;24231;52.514;13.438;2023-04-15T08:38:18;28;23;
38451;PMS5003;24231;52.514;13.438;2023-04-15T08:40:45;27;23;
38451;PMS5003;24231;52.514;13.438;2023-04-15T08:43:14;27;24;
38451;PMS5003;24231;52.514;13.438;2023-04-15T08:45:46;34;26;
38451;PMS5003;24231;52.514;13.438;2023-04-15T08:48:16;27;25;
38451;PMS5003;24231;52.514;13.438;2023-04-15T08:50:44;27;23;
38451;PMS5003;24231;52.514;13.438;2023-04-15T08:53:12;25;23;
38451;PMS5003;24231;52.514;13.438;2023-04-15T08:55:42;32;28;
38451;PMS5003;24231;52.514;13.438;2023-04-15T08:58:12;31;23;
38451;PMS5003;24231;52.514;13.438;2023-04-15T09:00:40;26;23;
38451;PMS5003;24231;52.514;13.438;2023-04-15T09:03:08;23;19;
38451;PMS5003;24231;52.514;13.438;2023-04-15T09:05:36;29;23;
38451;PMS5003;24231;52.514;13.438;2023-04-15T09:08:03;24;21;
38451;PMS5003;24231;52.514;13.438;2023-04-15T09:10:31;30;22;
38451;PMS5003;24231;52.514;13.438;2023-04-15T09:12:59;29;23;
38451;PMS5003;24231;52.514;13.438;2023-04-15T09:15:27;27;27;
38451;PMS5003;24231;52.514;13.438;2023-04-15T09:17:55;23;20;
38451;PMS5003;24231;52.514;13.438;2023-04-15T09:20:23;24;22;
38451;PMS5003;24231;52.514;13.438;2023-04-15T09:22:50;27;25;
38451;PMS5003;24231;52.514;13.438;2023-04-15T09:25:27;26;20;
38451;PMS5003;24231;52.514;13.438;2023-04-15T09:27:56;23;22;
38451;PMS5003;24231;52.514;13.438;2023-04-15T09:30:25;29;24;
38451;PMS5003;24231;52.514;13.438;2023-04-15T09:32:55;21;19;
38451;PMS5003;24231;52.514;13.438;2023-04-15T09:35:24;21;19;
38451;PMS5003;24231;52.514;13.438;2023-04-15T09:37:52;27;24;
38451;PMS5003;24231;52.514;13.438;2023-04-15T09:40:30;28;25;
38451;PMS5003;24231;52.514;13.438;2023-04-15T09:42:58;29;24;
38451;PMS5003;24231;52.514;13.438;2023-04-15T09:45:26;29;24;
38451;PMS5003;24231;52.514;13.438;2023-04-15T09:47:55;31;24;
38451;PMS5003;24231;52.514;13.438;2023-04-15T09:50:23;30;24;
38451;PMS5003;24231;52.514;13.438;2023-04-15T09:52:54;20;19;
38451;PMS5003;24231;52.514;13.438;2023-04-15T09:55:21;25;18;
38451;PMS5003;24231;52.514;13.438;2023-04-15T09:57:48;35;27;
38451;PMS5003;24231;52.514;13.438;2023-04-15T10:00:16;32;23;
38451;PMS5003;24231;52.514;13.438;2023-04-15T10:02:43;32;28;
38451;PMS5003;24231;52.514;13.438;2023-04-15T10:05:13;28;22;
38451;PMS5003;24231;52.514;13.438;2023-04-15T10:07:41;20;19;
38451;PMS5003;24231;52.514;13.438;2023-04-15T10:10:09;28;25;
38451;PMS5003;24231;52.514;13.438;2023-04-15T10:12:38;25;22;
38451;PMS5003;24231;52.514;13.438;2023-04-15T10:15:08;41;34;
38451;PMS5003;24231;52.514;13.438;2023-04-15T10:17:42;37;32;
38451;PMS5003;24231;52.514;13.438;2023-04-15T10:20:11;23;17;
38451;PMS5003;24231;52.514;13.438;2023-04-15T10:22:40;22;21;
38451;PMS5003;24231;52.514;13.438;2023-04-15T10:25:09;25;24;
38451;PMS5003;24231;52.514;13.438;2023-04-15T10:27:38;27;23;
38451;PMS5003;24231;52.514;13.438;2023-04-15T10:30:06;21;21;
38451;PMS5003;24231;52.514;13.438;2023-04-15T10:32:33;22;20;
38451;PMS5003;24231;52.514;13.438;2023-04-15T10:35:01;32;27;
38451;PMS5003;24231;52.514;13.438;2023-04-15T10:37:32;28;24;
38451;PMS5003;24231;52.514;13.438;2023-04-15T10:40:01;26;22;
38451;PMS5003;24231;52.514;13.438;2023-04-15T10:42:49;24;21;
38451;PMS5003;24231;52.514;13.438;2023-04-15T10:45:17;24;23;
38451;PMS5003;24231;52.514;13.438;2023-04-15T10:47:44;22;20;
38451;PMS5003;24231;52.514;13.438;2023-04-15T10:50:12;26;23;
38451;PMS5003;24231;52.514;13.438;2023-04-15T10:52:39;23;20;
38451;PMS5003;24231;52.514;13.438;2023-04-15T10:55:12;21;18;
38451;PMS5003;24231;52.514;13.438;2023-04-15T10:57:40;29;24;
38451;PMS5003;24231;52.514;13.438;2023-04-15T11:00:11;24;19;
38451;PMS5003;24231;52.514;13.438;2023-04-15T11:03:05;29;23;
38451;PMS5003;24231;52.514;13.438;2023-04-15T11:05:49;20;17;
38451;PMS5003;24231;52.514;13.438;2023-04-15T11:08:18;20;19;
38451;PMS5003;24231;52.514;13.438;2023-04-15T11:10:50;20;18;
38451;PMS5003;24231;52.514;13.438;2023-04-15T11:13:22;24;22;
38451;PMS5003;24231;52.514;13.438;2023-04-15T11:15:54;20;18;
38451;PMS5003;24231;52.514;13.438;2023-04-15T11:18:23;29;24;
38451;PMS5003;24231;52.514;13.438;2023-04-15T11:20:52;28;24;
38451;PMS5003;24231;52.514;13.438;2023-04-15T11:23:26;25;25;
38451;PMS5003;24231;52.514;13.438;2023-04-15T11:25:54;23;20;
38451;PMS5003;24231;52.514;13.438;2023-04-15T11:28:24;24;24;
38451;PMS5003;24231;52.514;13.438;2023-04-15T11:30:52;32;28;
38451;PMS5003;24231;52.514;13.438;2023-04-15T11:33:20;41;37;
38451;PMS5003;24231;52.514;13.438;2023-04-15T11:35:49;25;24;
38451;PMS5003;24231;52.514;13.438;2023-04-15T11:38:17;26;24;
38451;PMS5003;24231;52.514;13.438;2023-04-15T11:40:44;22;19;
38451;PMS5003;24231;52.514;13.438;2023-04-15T11:43:11;26;22;
38451;PMS5003;24231;52.514;13.438;2023-04-15T11:45:49;25;24;
38451;PMS5003;24231;52.514;13.438;2023-04-15T11:48:17;25;21;
38451;PMS5003;24231;52.514;13.438;2023-04-15T11:50:49;20;17;
38451;PMS5003;24231;52.514;13.438;2023-04-15T11:53:18;25;24;
38451;PMS5003;24231;52.514;13.438;2023-04-15T11:55:46;21;19;
38451;PMS5003;24231;52.514;13.438;2023-04-15T11:58:15;24;23;
38451;PMS5003;24231;52.514;13.438;2023-04-15T12:00:47;27;26;
38451;PMS5003;24231;52.514;13.438;2023-04-15T12:03:17;26;23;
38451;PMS5003;24231;52.514;13.438;2023-04-15T12:06:20;24;21;
38451;PMS5003;24231;52.514;13.438;2023-04-15T12:08:49;22;19;
38451;PMS5003;24231;52.514;13.438;2023-04-15T12:11:29;18;14;
38451;PMS5003;24231;52.514;13.438;2023-04-15T12:13:58;28;23;
38451;PMS5003;24231;52.514;13.438;2023-04-15T12:16:30;22;20;
38451;PMS5003;24231;52.514;13.438;2023-04-15T12:18:59;26;23;
38451;PMS5003;24231;52.514;13.438;2023-04-15T12:21:33;21;19;
38451;PMS5003;24231;52.514;13.438;2023-04-15T12:24:03;22;19;
38451;PMS5003;24231;52.514;13.438;2023-04-15T12:26:33;22;20;
38451;PMS5003;24231;52.514;13.438;2023-04-15T12:29:02;20;17;
38451;PMS5003;24231;52.514;13.438;2023-04-15T12:31:31;22;19;
38451;PMS5003;24231;52.514;13.438;2023-04-15T12:33:58;18;16;
38451;PMS5003;24231;52.514;13.438;2023-04-15T12:36:26;22;16;
38451;PMS5003;24231;52.514;13.438;2023-04-15T12:38:54;16;13;
38451;PMS5003;24231;52.514;13.438;2023-04-15T12:41:21;21;17;
38451;PMS5003;24231;52.514;13.438;2023-04-15T12:43:48;19;16;
38451;PMS5003;24231;52.514;13.438;2023-04-15T12:46:16;18;14;
38451;PMS5003;24231;52.514;13.438;2023-04-15T12:48:43;20;17;
38451;PMS5003;24231;52.514;13.438;2023-04-15T12:51:10;18;16;
38451;PMS5003;24231;52.514;13.438;2023-04-15T12:53:37;19;18;
38451;PMS5003;24231;52.514;13.438;2023-04-15T12:56:05;17;16;
38451;PMS5003;24231;52.514;13.438;2023-04-15T12:58:32;17;14;
38451;PMS5003;24231;52.514;13.438;2023-04-15T13:00:59;28;22;
38451;PMS5003;24231;52.514;13.438;2023-04-15T13:03:26;14;13;
38451;PMS5003;24231;52.514;13.438;2023-04-15T13:05:53;16;15;
38451;PMS5003;24231;52.514;13.438;2023-04-15T13:08:20;20;18;
38451;PMS5003;24231;52.514;13.438;2023-04-15T13:10:47;32;29;
38451;PMS5003;24231;52.514;13.438;2023-04-15T13:13:14;17;14;
38451;PMS5003;24231;52.514;13.438;2023-04-15T13:15:42;14;13;
38451;PMS5003;24231;52.514;13.438;2023-04-15T13:18:10;22;18;
38451;PMS5003;24231;52.514;13.438;2023-04-15T13:20:37;16;16;
38451;PMS5003;24231;52.514;13.438;2023-04-15T13:23:04;20;14;
38451;PMS5003;24231;52.514;13.438;2023-04-15T13:25:31;18;18;
38451;PMS5003;24231;52.514;13.438;2023-04-15T13:27:58;18;15;
38451;PMS5003;24231;52.514;13.438;2023-04-15T13:30:25;19;15;
38451;PMS5003;24231;52.514;13.438;2023-04-15T13:32:53;12;11;
38451;PMS5003;24231;52.514;13.438;2023-04-15T13:35:20;15;14;
38451;PMS5003;24231;52.514;13.438;2023-04-15T13:37:47;14;13;
38451;PMS5003;24231;52.514;13.438;2023-04-15T13:40:15;31;26;
38451;PMS5003;24231;52.514;13.438;2023-04-15T13:42:42;17;14;
38451;PMS5003;24231;52.514;13.438;2023-04-15T13:45:09;17;15;
38451;PMS5003;24231;52.514;13.438;2023-04-15T13:47:37;18;15;
38451;PMS5003;24231;52.514;13.438;2023-04-15T13:50:04;17;15;
38451;PMS5003;24231;52.514;13.438;2023-04-15T13:52:32;17;17;
38451;PMS5003;24231;52.514;13.438;2023-04-15T13:54:59;15;14;
38451;PMS5003;24231;52.514;13.438;2023-04-15T13:57:27;23;20;
38451;PMS5003;24231;52.514;13.438;2023-04-15T13:59:54;17;13;
38451;PMS5003;24231;52.514;13.438;2023-04-15T14:02:21;12;12;
38451;PMS5003;24231;52.514;13.438;2023-04-15T14:04:48;10;10;
38451;PMS5003;24231;52.514;13.438;2023-04-15T14:07:15;14;12;
38451;PMS5003;24231;52.514;13.438;2023-04-15T14:09:43;15;12;
38451;PMS5003;24231;52.514;13.438;2023-04-15T14:12:10;16;15;
38451;PMS5003;24231;52.514;13.438;2023-04-15T14:14:37;19;16;
38451;PMS5003;24231;52.514;13.438;2023-04-15T14:17:04;16;14;
38451;PMS5003;24231;52.514;13.438;2023-04-15T14:19:31;16;15;
38451;PMS5003;24231;52.514;13.438;2023-04-15T14:21:58;16;15;
38451;PMS5003;24231;52.514;13.438;2023-04-15T14:24:26;17;16;
38451;PMS5003;24231;52.514;13.438;2023-04-15T14:26:53;16;14;
38451;PMS5003;24231;52.514;13.438;2023-04-15T14:29:25;16;14;
38451;PMS5003;24231;52.514;13.438;2023-04-15T14:31:53;19;14;
38451;PMS5003;24231;52.514;13.438;2023-04-15T14:34:20;21;17;
38451;PMS5003;24231;52.514;13.438;2023-04-15T14:36:48;72;63;
38451;PMS5003;24231;52.514;13.438;2023-04-15T14:39:15;15;15;
38451;PMS5003;24231;52.514;13.438;2023-04-15T14:41:42;18;14;
38451;PMS5003;24231;52.514;13.438;2023-04-15T14:44:09;13;13;
38451;PMS5003;24231;52.514;13.438;2023-04-15T14:46:37;12;11;
38451;PMS5003;24231;52.514;13.438;2023-04-15T14:49:04;16;14;
38451;PMS5003;24231;52.514;13.438;2023-04-15T14:51:31;14;10;
38451;PMS5003;24231;52.514;13.438;2023-04-15T14:53:58;14;12;
38451;PMS5003;24231;52.514;13.438;2023-04-15T14:56:26;14;14;
38451;PMS5003;24231;52.514;13.438;2023-04-15T14:58:53;12;12;
38451;PMS5003;24231;52.514;13.438;2023-04-15T15:01:20;14;14;
38451;PMS5003;24231;52.514;13.438;2023-04-15T15:03:48;14;12;
38451;PMS5003;24231;52.514;13.438;2023-04-15T15:06:14;14;12;
38451;PMS5003;24231;52.514;13.438;2023-04-15T15:08:42;13;13;
38451;PMS5003;24231;52.514;13.438;2023-04-15T15:11:09;14;12;
38451;PMS5003;24231;52.514;13.438;2023-04-15T15:13:36;11;11;
38451;PMS5003;24231;52.514;13.438;2023-04-15T15:16:04;16;13;
38451;PMS5003;24231;52.514;13.438;2023-04-15T15:18:31;12;12;
38451;PMS5003;24231;52.514;13.438;2023-04-15T15:20:58;15;15;
38451;PMS5003;24231;52.514;13.438;2023-04-15T15:23:26;11;10;
38451;PMS5003;24231;52.514;13.438;2023-04-15T15:25:53;13;8;
38451;PMS5003;24231;52.514;13.438;2023-04-15T15:28:20;15;12;
38451;PMS5003;24231;52.514;13.438;2023-04-15T15:30:48;13;12;
38451;PMS5003;24231;52.514;13.438;2023-04-15T15:33:15;66;54;
38451;PMS5003;24231;52.514;13.438;2023-04-15T15:35:41;22;21;
38451;PMS5003;24231;52.514;13.438;2023-04-15T15:38:10;14;12;
38451;PMS5003;24231;52.514;13.438;2023-04-15T15:40:37;9;8;
38451;PMS5003;24231;52.514;13.438;2023-04-15T15:43:05;12;12;
38451;PMS5003;24231;52.514;13.438;2023-04-15T15:45:32;9;9;
38451;PMS5003;24231;52.514;13.438;2023-04-15T15:48:01;8;8;
38451;PMS5003;24231;52.514;13.438;2023-04-15T15:50:28;9;9;
38451;PMS5003;24231;52.514;13.438;2023-04-15T15:52:55;14;10;
38451;PMS5003;24231;52.514;13.438;2023-04-15T15:55:23;16;15;
38451;PMS5003;24231;52.514;13.438;2023-04-15T15:57:49;17;17;
38451;PMS5003;24231;52.514;13.438;2023-04-15T16:00:17;15;13;
38451;PMS5003;24231;52.514;13.438;2023-04-15T16:02:44;13;11;
38451;PMS5003;24231;52.514;13.438;2023-04-15T16:05:11;11;10;
38451;PMS5003;24231;52.514;13.438;2023-04-15T16:07:38;37;31;